sensor_id;sensor_type;location;lat;lon;timestamp;temperature;humidity
84916;DHT22;75178;53.054;5.846;2023-12-29T00:00:30;9.70;99.90
84916;DHT22;75178;53.054;5.846;2023-12-29T00:02:56;9.80;99.90
84916;DHT22;75178;53.054;5.846;2023-12-29T00:05:22;9.80;99.90
84916;DHT22;75178;53.054;5.846;2023-12-29T00:07:47;9.80;99.90
84916;DHT22;75178;53.054;5.846;2023-12-29T00:10:13;9.80;99.90
84916;DHT22;75178;53.054;5.846;2023-12-29T00:12:39;9.80;99.90
84916;DHT22;75178;53.054;5.846;2023-12-29T00:15:07;9.90;99.90
84916;DHT22;75178;53.054;5.846;2023-12-29T00:17:33;9.80;99.90
84916;DHT22;75178;53.054;5.846;2023-12-29T00:19:58;9.80;99.90
84916;DHT22;75178;53.054;5.846;2023-12-29T00:22:24;9.80;99.90
84916;DHT22;75178;53.054;5.846;2023-12-29T00:24:50;9.80;99.90
84916;DHT22;75178;53.054;5.846;2023-12-29T00:27:15;9.80;99.90
84916;DHT22;75178;53.054;5.846;2023-12-29T00:29:41;9.90;99.90
84916;DHT22;75178;53.054;5.846;2023-12-29T00:32:08;9.80;99.90
84916;DHT22;75178;53.054;5.846;2023-12-29T00:34:33;9.90;99.90
84916;DHT22;75178;53.054;5.846;2023-12-29T00:36:59;10.00;99.90
84916;DHT22;75178;53.054;5.846;2023-12-29T00:39:25;10.00;99.90
84916;DHT22;75178;53.054;5.846;2023-12-29T00:41:50;10.00;99.90
84916;DHT22;75178;53.054;5.846;2023-12-29T00:44:16;10.10;99.90
84916;DHT22;75178;53.054;5.846;2023-12-29T00:46:42;10.10;99.90
84916;DHT22;75178;53.054;5.846;2023-12-29T00:49:09;10.00;99.90
84916;DHT22;75178;53.054;5.846;2023-12-29T00:51:39;10.10;99.90
84916;DHT22;75178;53.054;5.846;2023-12-29T00:54:05;10.10;99.90
84916;DHT22;75178;53.054;5.846;2023-12-29T00:56:30;10.10;99.90
84916;DHT22;75178;53.054;5.846;2023-12-29T00:58:56;10.10;99.90
84916;DHT22;75178;53.054;5.846;2023-12-29T01:01:22;9.90;99.90
84916;DHT22;75178;53.054;5.846;2023-12-29T01:03:47;9.90;99.90
84916;DHT22;75178;53.054;5.846;2023-12-29T01:06:14;9.80;99.90
84916;DHT22;75178;53.054;5.846;2023-12-29T01:08:40;9.80;99.90
84916;DHT22;75178;53.054;5.846;2023-12-29T01:11:06;9.70;99.90
84916;DHT22;75178;53.054;5.846;2023-12-29T01:13:31;9.60;99.90
84916;DHT22;75178;53.054;5.846;2023-12-29T01:15:57;9.60;99.90
84916;DHT22;75178;53.054;5.846;2023-12-29T01:18:23;9.50;99.90
84916;DHT22;75178;53.054;5.846;2023-12-29T01:20:48;9.50;99.90
84916;DHT22;75178;53.054;5.846;2023-12-29T01:23:15;9.50;99.90
84916;DHT22;75178;53.054;5.846;2023-12-29T01:25:41;9.50;99.90
84916;DHT22;75178;53.054;5.846;2023-12-29T01:28:07;9.50;99.90
84916;DHT22;75178;53.054;5.846;2023-12-29T01:30:32;9.50;99.90
84916;DHT22;75178;53.054;5.846;2023-12-29T01:32:58;9.50;99.90
84916;DHT22;75178;53.054;5.846;2023-12-29T01:35:23;9.50;99.90
84916;DHT22;75178;53.054;5.846;2023-12-29T01:37:49;9.40;99.90
84916;DHT22;75178;53.054;5.846;2023-12-29T01:40:16;9.50;99.90
84916;DHT22;75178;53.054;5.846;2023-12-29T01:42:42;9.50;99.90
84916;DHT22;75178;53.054;5.846;2023-12-29T01:45:20;9.50;99.90
84916;DHT22;75178;53.054;5.846;2023-12-29T01:47:46;9.40;99.90
84916;DHT22;75178;53.054;5.846;2023-12-29T01:50:12;9.40;99.90
84916;DHT22;75178;53.054;5.846;2023-12-29T01:52:38;9.30;99.90
84916;DHT22;75178;53.054;5.846;2023-12-29T01:55:05;9.20;99.90
84916;DHT22;75178;53.054;5.846;2023-12-29T01:57:33;9.10;99.90
84916;DHT22;75178;53.054;5.846;2023-12-29T01:59:59;9.00;99.90
84916;DHT22;75178;53.054;5.846;2023-12-29T02:02:24;9.00;99.90
84916;DHT22;75178;53.054;5.846;2023-12-29T02:04:50;8.90;99.90
84916;DHT22;75178;53.054;5.846;2023-12-29T02:07:16;8.80;99.90
84916;DHT22;75178;53.054;5.846;2023-12-29T02:09:41;8.80;99.90
84916;DHT22;75178;53.054;5.846;2023-12-29T02:12:07;8.80;99.90
84916;DHT22;75178;53.054;5.846;2023-12-29T02:14:34;8.90;99.90
84916;DHT22;75178;53.054;5.846;2023-12-29T02:17:07;8.90;99.90
84916;DHT22;75178;53.054;5.846;2023-12-29T02:19:38;8.90;99.90
84916;DHT22;75178;53.054;5.846;2023-12-29T02:22:06;9.00;99.90
84916;DHT22;75178;53.054;5.846;2023-12-29T02:24:33;9.00;99.90
84916;DHT22;75178;53.054;5.846;2023-12-29T02:27:11;9.00;99.90
84916;DHT22;75178;53.054;5.846;2023-12-29T02:29:38;9.10;99.90
84916;DHT22;75178;53.054;5.846;2023-12-29T02:32:06;9.10;99.90
84916;DHT22;75178;53.054;5.846;2023-12-29T02:34:38;9.20;99.90
84916;DHT22;75178;53.054;5.846;2023-12-29T02:37:05;9.20;99.90
84916;DHT22;75178;53.054;5.846;2023-12-29T02:39:32;9.30;99.90
84916;DHT22;75178;53.054;5.846;2023-12-29T02:41:59;9.30;99.90
84916;DHT22;75178;53.054;5.846;2023-12-29T02:44:25;9.40;99.90
84916;DHT22;75178;53.054;5.846;2023-12-29T02:46:50;9.40;99.90
84916;DHT22;75178;53.054;5.846;2023-12-29T02:49:16;9.40;99.90
84916;DHT22;75178;53.054;5.846;2023-12-29T02:51:42;9.40;99.90
84916;DHT22;75178;53.054;5.846;2023-12-29T02:54:08;9.40;99.90
84916;DHT22;75178;53.054;5.846;2023-12-29T02:56:33;9.50;99.90
84916;DHT22;75178;53.054;5.846;2023-12-29T02:59:00;9.50;99.90
84916;DHT22;75178;53.054;5.846;2023-12-29T03:01:26;9.50;99.90
84916;DHT22;75178;53.054;5.846;2023-12-29T03:03:51;9.50;99.90
84916;DHT22;75178;53.054;5.846;2023-12-29T03:06:17;9.50;99.90
84916;DHT22;75178;53.054;5.846;2023-12-29T03:08:43;9.50;99.90
84916;DHT22;75178;53.054;5.846;2023-12-29T03:11:08;9.60;99.90
84916;DHT22;75178;53.054;5.846;2023-12-29T03:13:34;9.60;99.90
84916;DHT22;75178;53.054;5.846;2023-12-29T03:16:01;9.60;99.90
84916;DHT22;75178;53.054;5.846;2023-12-29T03:18:27;9.50;99.90
84916;DHT22;75178;53.054;5.846;2023-12-29T03:20:53;9.50;99.90
84916;DHT22;75178;53.054;5.846;2023-12-29T03:23:18;9.50;99.90
84916;DHT22;75178;53.054;5.846;2023-12-29T03:25:44;9.50;99.90
84916;DHT22;75178;53.054;5.846;2023-12-29T03:28:10;9.50;99.90
84916;DHT22;75178;53.054;5.846;2023-12-29T03:30:35;9.50;99.90
84916;DHT22;75178;53.054;5.846;2023-12-29T03:33:02;9.50;99.90
84916;DHT22;75178;53.054;5.846;2023-12-29T03:35:28;9.50;99.90
84916;DHT22;75178;53.054;5.846;2023-12-29T03:37:54;9.50;99.90
84916;DHT22;75178;53.054;5.846;2023-12-29T03:40:19;9.50;99.90
84916;DHT22;75178;53.054;5.846;2023-12-29T03:42:45;9.50;99.90
84916;DHT22;75178;53.054;5.846;2023-12-29T03:45:11;9.50;99.90
84916;DHT22;75178;53.054;5.846;2023-12-29T03:47:36;9.50;99.90
84916;DHT22;75178;53.054;5.846;2023-12-29T03:50:04;9.50;99.90
84916;DHT22;75178;53.054;5.846;2023-12-29T03:52:30;9.50;99.90
84916;DHT22;75178;53.054;5.846;2023-12-29T03:54:55;9.50;99.90
84916;DHT22;75178;53.054;5.846;2023-12-29T03:57:21;9.40;99.90
84916;DHT22;75178;53.054;5.846;2023-12-29T03:59:46;9.40;99.90
84916;DHT22;75178;53.054;5.846;2023-12-29T04:02:12;9.40;99.90
84916;DHT22;75178;53.054;5.846;2023-12-29T04:04:38;9.40;99.90
84916;DHT22;75178;53.054;5.846;2023-12-29T04:07:05;9.40;99.90
84916;DHT22;75178;53.054;5.846;2023-12-29T04:09:30;9.30;99.90
84916;DHT22;75178;53.054;5.846;2023-12-29T04:11:56;9.30;99.90
84916;DHT22;75178;53.054;5.846;2023-12-29T04:14:22;9.30;99.90
84916;DHT22;75178;53.054;5.846;2023-12-29T04:16:47;9.30;99.90
84916;DHT22;75178;53.054;5.846;2023-12-29T04:19:13;9.40;99.90
84916;DHT22;75178;53.054;5.846;2023-12-29T04:21:39;9.40;99.90
84916;DHT22;75178;53.054;5.846;2023-12-29T04:24:06;9.30;99.90
84916;DHT22;75178;53.054;5.846;2023-12-29T04:26:35;9.30;99.90
84916;DHT22;75178;53.054;5.846;2023-12-29T04:29:01;9.30;99.90
84916;DHT22;75178;53.054;5.846;2023-12-29T04:31:26;9.30;99.90
84916;DHT22;75178;53.054;5.846;2023-12-29T04:33:52;9.30;99.90
84916;DHT22;75178;53.054;5.846;2023-12-29T04:36:18;9.30;99.90
84916;DHT22;75178;53.054;5.846;2023-12-29T04:38:43;9.40;99.90
84916;DHT22;75178;53.054;5.846;2023-12-29T04:41:11;9.40;99.90
84916;DHT22;75178;53.054;5.846;2023-12-29T04:43:37;9.40;99.90
84916;DHT22;75178;53.054;5.846;2023-12-29T04:46:03;9.40;99.90
84916;DHT22;75178;53.054;5.846;2023-12-29T04:48:28;9.30;99.90
84916;DHT22;75178;53.054;5.846;2023-12-29T04:50:54;9.30;99.90
84916;DHT22;75178;53.054;5.846;2023-12-29T04:53:20;9.30;99.90
84916;DHT22;75178;53.054;5.846;2023-12-29T04:55:45;9.30;99.90
84916;DHT22;75178;53.054;5.846;2023-12-29T04:58:12;9.30;99.90
84916;DHT22;75178;53.054;5.846;2023-12-29T05:00:38;9.30;99.90
84916;DHT22;75178;53.054;5.846;2023-12-29T05:03:04;9.30;99.90
84916;DHT22;75178;53.054;5.846;2023-12-29T05:05:29;9.30;99.90
84916;DHT22;75178;53.054;5.846;2023-12-29T05:07:55;9.30;99.90
84916;DHT22;75178;53.054;5.846;2023-12-29T05:10:21;9.40;99.90
84916;DHT22;75178;53.054;5.846;2023-12-29T05:12:46;9.40;99.90
84916;DHT22;75178;53.054;5.846;2023-12-29T05:15:13;9.40;99.90
84916;DHT22;75178;53.054;5.846;2023-12-29T05:17:39;9.30;99.90
84916;DHT22;75178;53.054;5.846;2023-12-29T05:20:06;9.30;99.90
84916;DHT22;75178;53.054;5.846;2023-12-29T05:22:32;9.30;99.90
84916;DHT22;75178;53.054;5.846;2023-12-29T05:24:57;9.30;99.90
84916;DHT22;75178;53.054;5.846;2023-12-29T05:27:23;9.30;99.90
84916;DHT22;75178;53.054;5.846;2023-12-29T05:29:49;9.30;99.90
84916;DHT22;75178;53.054;5.846;2023-12-29T05:32:16;9.30;99.90
84916;DHT22;75178;53.054;5.846;2023-12-29T05:34:41;9.30;99.90
84916;DHT22;75178;53.054;5.846;2023-12-29T05:37:07;9.30;99.90
84916;DHT22;75178;53.054;5.846;2023-12-29T05:39:33;9.30;99.90
84916;DHT22;75178;53.054;5.846;2023-12-29T05:41:58;9.30;99.90
84916;DHT22;75178;53.054;5.846;2023-12-29T05:44:24;9.30;99.90
84916;DHT22;75178;53.054;5.846;2023-12-29T05:46:50;9.30;99.90
84916;DHT22;75178;53.054;5.846;2023-12-29T05:49:17;9.40;99.90
84916;DHT22;75178;53.054;5.846;2023-12-29T05:51:43;9.40;99.90
84916;DHT22;75178;53.054;5.846;2023-12-29T05:54:09;9.40;99.90
84916;DHT22;75178;53.054;5.846;2023-12-29T05:56:34;9.50;99.90
84916;DHT22;75178;53.054;5.846;2023-12-29T05:59:00;9.50;99.90
84916;DHT22;75178;53.054;5.846;2023-12-29T06:01:26;9.50;99.90
84916;DHT22;75178;53.054;5.846;2023-12-29T06:03:51;9.50;99.90
84916;DHT22;75178;53.054;5.846;2023-12-29T06:06:18;9.50;99.90
84916;DHT22;75178;53.054;5.846;2023-12-29T06:08:44;9.50;99.90
84916;DHT22;75178;53.054;5.846;2023-12-29T06:11:14;9.50;99.90
84916;DHT22;75178;53.054;5.846;2023-12-29T06:13:40;9.40;99.90
84916;DHT22;75178;53.054;5.846;2023-12-29T06:16:06;9.40;99.90
84916;DHT22;75178;53.054;5.846;2023-12-29T06:18:32;9.40;99.90
84916;DHT22;75178;53.054;5.846;2023-12-29T06:20:57;9.40;99.90
84916;DHT22;75178;53.054;5.846;2023-12-29T06:23:24;9.40;99.90
84916;DHT22;75178;53.054;5.846;2023-12-29T06:25:50;9.40;99.90
84916;DHT22;75178;53.054;5.846;2023-12-29T06:28:16;9.30;99.90
84916;DHT22;75178;53.054;5.846;2023-12-29T06:30:42;9.30;99.90
84916;DHT22;75178;53.054;5.846;2023-12-29T06:33:08;9.30;99.90
84916;DHT22;75178;53.054;5.846;2023-12-29T06:35:33;9.40;99.90
84916;DHT22;75178;53.054;5.846;2023-12-29T06:37:59;9.40;99.90
84916;DHT22;75178;53.054;5.846;2023-12-29T06:40:26;9.40;99.90
84916;DHT22;75178;53.054;5.846;2023-12-29T06:42:52;9.40;99.90
84916;DHT22;75178;53.054;5.846;2023-12-29T06:45:18;9.40;99.90
84916;DHT22;75178;53.054;5.846;2023-12-29T06:47:43;9.40;99.90
84916;DHT22;75178;53.054;5.846;2023-12-29T06:50:09;9.30;99.90
84916;DHT22;75178;53.054;5.846;2023-12-29T06:52:35;9.30;99.90
84916;DHT22;75178;53.054;5.846;2023-12-29T06:55:01;9.40;99.90
84916;DHT22;75178;53.054;5.846;2023-12-29T06:57:28;9.40;99.90
84916;DHT22;75178;53.054;5.846;2023-12-29T06:59:54;9.40;99.90
84916;DHT22;75178;53.054;5.846;2023-12-29T07:02:19;9.30;99.90
84916;DHT22;75178;53.054;5.846;2023-12-29T07:04:45;9.40;99.90
84916;DHT22;75178;53.054;5.846;2023-12-29T07:07:11;9.40;99.90
84916;DHT22;75178;53.054;5.846;2023-12-29T07:09:38;9.40;99.90
84916;DHT22;75178;53.054;5.846;2023-12-29T07:12:04;9.40;99.90
84916;DHT22;75178;53.054;5.846;2023-12-29T07:14:31;9.40;99.90
84916;DHT22;75178;53.054;5.846;2023-12-29T07:16:57;9.50;99.90
84916;DHT22;75178;53.054;5.846;2023-12-29T07:19:22;9.40;99.90
84916;DHT22;75178;53.054;5.846;2023-12-29T07:21:48;9.40;99.90
84916;DHT22;75178;53.054;5.846;2023-12-29T07:24:14;9.40;99.90
84916;DHT22;75178;53.054;5.846;2023-12-29T07:26:39;9.50;99.90
84916;DHT22;75178;53.054;5.846;2023-12-29T07:29:06;9.50;99.90
84916;DHT22;75178;53.054;5.846;2023-12-29T07:31:33;9.40;99.90
84916;DHT22;75178;53.054;5.846;2023-12-29T07:33:59;9.40;99.90
84916;DHT22;75178;53.054;5.846;2023-12-29T07:36:25;9.50;99.90
84916;DHT22;75178;53.054;5.846;2023-12-29T07:38:51;9.50;99.90
84916;DHT22;75178;53.054;5.846;2023-12-29T07:41:16;9.50;99.90
84916;DHT22;75178;53.054;5.846;2023-12-29T07:43:42;9.50;99.90
84916;DHT22;75178;53.054;5.846;2023-12-29T07:46:08;9.50;99.90
84916;DHT22;75178;53.054;5.846;2023-12-29T07:48:35;9.50;99.90
84916;DHT22;75178;53.054;5.846;2023-12-29T07:51:05;9.50;99.90
84916;DHT22;75178;53.054;5.846;2023-12-29T07:53:31;9.50;99.90
84916;DHT22;75178;53.054;5.846;2023-12-29T07:55:57;9.50;99.90
84916;DHT22;75178;53.054;5.846;2023-12-29T07:58:22;9.50;99.90
84916;DHT22;75178;53.054;5.846;2023-12-29T08:00:49;9.40;99.90
84916;DHT22;75178;53.054;5.846;2023-12-29T08:03:14;9.40;99.90
84916;DHT22;75178;53.054;5.846;2023-12-29T08:05:41;9.40;99.90
84916;DHT22;75178;53.054;5.846;2023-12-29T08:08:07;9.50;99.90
84916;DHT22;75178;53.054;5.846;2023-12-29T08:10:33;9.50;99.90
84916;DHT22;75178;53.054;5.846;2023-12-29T08:12:58;9.50;99.90
84916;DHT22;75178;53.054;5.846;2023-12-29T08:15:24;9.50;99.90
84916;DHT22;75178;53.054;5.846;2023-12-29T08:17:50;9.50;99.90
84916;DHT22;75178;53.054;5.846;2023-12-29T08:20:15;9.50;99.90
84916;DHT22;75178;53.054;5.846;2023-12-29T08:22:43;9.50;99.90
84916;DHT22;75178;53.054;5.846;2023-12-29T08:25:08;9.50;99.90
84916;DHT22;75178;53.054;5.846;2023-12-29T08:27:34;9.50;99.90
84916;DHT22;75178;53.054;5.846;2023-12-29T08:30:00;9.50;99.90
84916;DHT22;75178;53.054;5.846;2023-12-29T08:32:25;9.50;99.90
84916;DHT22;75178;53.054;5.846;2023-12-29T08:34:51;9.40;99.90
84916;DHT22;75178;53.054;5.846;2023-12-29T08:37:16;9.40;99.90
84916;DHT22;75178;53.054;5.846;2023-12-29T08:39:43;9.40;99.90
84916;DHT22;75178;53.054;5.846;2023-12-29T08:42:09;9.40;99.90
84916;DHT22;75178;53.054;5.846;2023-12-29T08:44:35;9.40;99.90
84916;DHT22;75178;53.054;5.846;2023-12-29T08:47:00;9.40;99.90
84916;DHT22;75178;53.054;5.846;2023-12-29T08:49:26;9.40;99.90
84916;DHT22;75178;53.054;5.846;2023-12-29T08:51:52;9.40;99.90
84916;DHT22;75178;53.054;5.846;2023-12-29T08:54:17;9.50;99.90
84916;DHT22;75178;53.054;5.846;2023-12-29T08:56:44;9.50;99.90
84916;DHT22;75178;53.054;5.846;2023-12-29T08:59:10;9.50;99.90
84916;DHT22;75178;53.054;5.846;2023-12-29T09:01:35;9.50;99.90
84916;DHT22;75178;53.054;5.846;2023-12-29T09:04:01;9.50;99.90
84916;DHT22;75178;53.054;5.846;2023-12-29T09:06:27;9.50;99.90
84916;DHT22;75178;53.054;5.846;2023-12-29T09:08:52;9.50;99.90
84916;DHT22;75178;53.054;5.846;2023-12-29T09:11:18;9.50;99.90
84916;DHT22;75178;53.054;5.846;2023-12-29T09:13:45;9.50;99.90
84916;DHT22;75178;53.054;5.846;2023-12-29T09:16:11;9.50;99.90
84916;DHT22;75178;53.054;5.846;2023-12-29T09:18:36;9.60;99.90
84916;DHT22;75178;53.054;5.846;2023-12-29T09:21:02;9.50;99.90
84916;DHT22;75178;53.054;5.846;2023-12-29T09:23:28;9.60;99.90
84916;DHT22;75178;53.054;5.846;2023-12-29T09:25:53;9.60;99.90
84916;DHT22;75178;53.054;5.846;2023-12-29T09:28:19;9.60;99.90
84916;DHT22;75178;53.054;5.846;2023-12-29T09:30:46;9.60;99.90
84916;DHT22;75178;53.054;5.846;2023-12-29T09:33:12;9.60;99.90
84916;DHT22;75178;53.054;5.846;2023-12-29T09:35:37;9.60;99.90
84916;DHT22;75178;53.054;5.846;2023-12-29T09:38:04;9.60;99.90
84916;DHT22;75178;53.054;5.846;2023-12-29T09:40:30;9.60;99.90
84916;DHT22;75178;53.054;5.846;2023-12-29T09:42:55;9.60;99.90
84916;DHT22;75178;53.054;5.846;2023-12-29T09:45:23;9.60;99.90
84916;DHT22;75178;53.054;5.846;2023-12-29T09:47:51;9.70;99.90
84916;DHT22;75178;53.054;5.846;2023-12-29T09:50:17;9.70;99.90
84916;DHT22;75178;53.054;5.846;2023-12-29T09:52:44;9.70;99.90
84916;DHT22;75178;53.054;5.846;2023-12-29T09:55:14;9.70;99.90
84916;DHT22;75178;53.054;5.846;2023-12-29T09:57:40;9.70;99.90
84916;DHT22;75178;53.054;5.846;2023-12-29T10:00:07;9.70;99.90
84916;DHT22;75178;53.054;5.846;2023-12-29T10:02:35;9.70;99.90
84916;DHT22;75178;53.054;5.846;2023-12-29T10:05:03;9.70;99.90
84916;DHT22;75178;53.054;5.846;2023-12-29T10:07:32;9.70;99.90
84916;DHT22;75178;53.054;5.846;2023-12-29T10:10:01;9.70;99.90
84916;DHT22;75178;53.054;5.846;2023-12-29T10:12:28;9.60;99.90
84916;DHT22;75178;53.054;5.846;2023-12-29T10:15:00;9.60;99.90
84916;DHT22;75178;53.054;5.846;2023-12-29T10:17:32;9.60;99.90
84916;DHT22;75178;53.054;5.846;2023-12-29T10:20:07;9.70;99.90
84916;DHT22;75178;53.054;5.846;2023-12-29T10:22:48;9.70;99.90
84916;DHT22;75178;53.054;5.846;2023-12-29T10:25:17;9.60;99.90
84916;DHT22;75178;53.054;5.846;2023-12-29T10:27:42;9.60;99.90
84916;DHT22;75178;53.054;5.846;2023-12-29T10:30:10;9.60;99.90
84916;DHT22;75178;53.054;5.846;2023-12-29T10:32:36;9.50;99.90
84916;DHT22;75178;53.054;5.846;2023-12-29T10:35:10;9.50;99.90
84916;DHT22;75178;53.054;5.846;2023-12-29T10:37:36;9.40;99.90
84916;DHT22;75178;53.054;5.846;2023-12-29T10:40:02;9.50;99.90
84916;DHT22;75178;53.054;5.846;2023-12-29T10:42:28;9.50;99.90
84916;DHT22;75178;53.054;5.846;2023-12-29T10:45:05;9.50;99.90
84916;DHT22;75178;53.054;5.846;2023-12-29T10:47:31;9.50;99.90
84916;DHT22;75178;53.054;5.846;2023-12-29T10:49:58;9.50;99.90
84916;DHT22;75178;53.054;5.846;2023-12-29T10:52:26;9.50;99.90
84916;DHT22;75178;53.054;5.846;2023-12-29T10:55:04;9.50;99.90
84916;DHT22;75178;53.054;5.846;2023-12-29T10:57:29;9.60;99.90
84916;DHT22;75178;53.054;5.846;2023-12-29T10:59:55;9.60;99.90
84916;DHT22;75178;53.054;5.846;2023-12-29T11:02:21;9.60;99.90
84916;DHT22;75178;53.054;5.846;2023-12-29T11:04:46;9.60;99.90
84916;DHT22;75178;53.054;5.846;2023-12-29T11:07:12;9.60;99.90
84916;DHT22;75178;53.054;5.846;2023-12-29T11:09:39;9.70;99.90
84916;DHT22;75178;53.054;5.846;2023-12-29T11:12:06;9.70;99.90
84916;DHT22;75178;53.054;5.846;2023-12-29T11:14:32;9.70;99.90
84916;DHT22;75178;53.054;5.846;2023-12-29T11:16:58;9.70;99.90
84916;DHT22;75178;53.054;5.846;2023-12-29T11:19:24;9.70;99.90
84916;DHT22;75178;53.054;5.846;2023-12-29T11:21:53;9.70;99.90
84916;DHT22;75178;53.054;5.846;2023-12-29T11:24:19;9.60;99.90
84916;DHT22;75178;53.054;5.846;2023-12-29T11:26:48;9.60;99.90
84916;DHT22;75178;53.054;5.846;2023-12-29T11:29:15;9.60;99.90
84916;DHT22;75178;53.054;5.846;2023-12-29T11:31:41;9.60;99.90
84916;DHT22;75178;53.054;5.846;2023-12-29T11:34:11;9.60;99.90
84916;DHT22;75178;53.054;5.846;2023-12-29T11:36:41;9.50;99.90
84916;DHT22;75178;53.054;5.846;2023-12-29T11:39:17;9.50;99.90
84916;DHT22;75178;53.054;5.846;2023-12-29T11:41:51;9.40;99.90
84916;DHT22;75178;53.054;5.846;2023-12-29T11:44:24;9.40;99.90
84916;DHT22;75178;53.054;5.846;2023-12-29T11:46:50;9.40;99.90
84916;DHT22;75178;53.054;5.846;2023-12-29T11:49:16;9.30;99.90
84916;DHT22;75178;53.054;5.846;2023-12-29T11:51:43;9.30;99.90
84916;DHT22;75178;53.054;5.846;2023-12-29T11:54:09;9.20;99.90
84916;DHT22;75178;53.054;5.846;2023-12-29T11:56:35;9.20;99.90
84916;DHT22;75178;53.054;5.846;2023-12-29T11:59:16;9.10;99.90
84916;DHT22;75178;53.054;5.846;2023-12-29T12:01:43;9.10;99.90
84916;DHT22;75178;53.054;5.846;2023-12-29T12:04:36;9.10;99.90
84916;DHT22;75178;53.054;5.846;2023-12-29T12:07:02;9.00;99.90
84916;DHT22;75178;53.054;5.846;2023-12-29T12:09:28;9.00;99.90
84916;DHT22;75178;53.054;5.846;2023-12-29T12:11:54;8.90;99.90
84916;DHT22;75178;53.054;5.846;2023-12-29T12:14:52;8.90;99.90
84916;DHT22;75178;53.054;5.846;2023-12-29T12:17:28;8.90;99.90
84916;DHT22;75178;53.054;5.846;2023-12-29T12:19:57;8.80;99.90
84916;DHT22;75178;53.054;5.846;2023-12-29T12:22:24;8.80;99.90
84916;DHT22;75178;53.054;5.846;2023-12-29T12:24:50;8.80;99.90
84916;DHT22;75178;53.054;5.846;2023-12-29T12:27:20;8.80;99.90
84916;DHT22;75178;53.054;5.846;2023-12-29T12:29:48;8.80;99.90
84916;DHT22;75178;53.054;5.846;2023-12-29T12:32:16;8.80;99.90
84916;DHT22;75178;53.054;5.846;2023-12-29T12:34:42;8.80;99.90
84916;DHT22;75178;53.054;5.846;2023-12-29T12:37:08;8.80;99.90
84916;DHT22;75178;53.054;5.846;2023-12-29T12:39:40;8.80;99.90
84916;DHT22;75178;53.054;5.846;2023-12-29T12:42:05;8.80;99.90
84916;DHT22;75178;53.054;5.846;2023-12-29T12:44:31;8.80;99.90
84916;DHT22;75178;53.054;5.846;2023-12-29T12:46:59;8.80;99.90
84916;DHT22;75178;53.054;5.846;2023-12-29T12:49:26;8.80;99.90
84916;DHT22;75178;53.054;5.846;2023-12-29T12:51:54;8.80;99.90
84916;DHT22;75178;53.054;5.846;2023-12-29T12:54:20;8.90;99.90
84916;DHT22;75178;53.054;5.846;2023-12-29T12:56:47;8.80;99.90
84916;DHT22;75178;53.054;5.846;2023-12-29T12:59:13;8.90;99.90
84916;DHT22;75178;53.054;5.846;2023-12-29T13:01:39;8.80;99.90
84916;DHT22;75178;53.054;5.846;2023-12-29T13:04:06;8.90;99.90
84916;DHT22;75178;53.054;5.846;2023-12-29T13:06:34;8.80;99.90
84916;DHT22;75178;53.054;5.846;2023-12-29T13:09:00;8.80;99.90
84916;DHT22;75178;53.054;5.846;2023-12-29T13:11:26;8.90;99.90
84916;DHT22;75178;53.054;5.846;2023-12-29T13:13:52;8.90;99.90
84916;DHT22;75178;53.054;5.846;2023-12-29T13:16:17;8.90;99.90
84916;DHT22;75178;53.054;5.846;2023-12-29T13:18:43;8.90;99.90
84916;DHT22;75178;53.054;5.846;2023-12-29T13:21:09;8.90;99.90
84916;DHT22;75178;53.054;5.846;2023-12-29T13:23:36;8.90;99.90
84916;DHT22;75178;53.054;5.846;2023-12-29T13:26:04;8.90;99.90
84916;DHT22;75178;53.054;5.846;2023-12-29T13:28:31;8.90;99.90
84916;DHT22;75178;53.054;5.846;2023-12-29T13:30:57;8.90;99.90
84916;DHT22;75178;53.054;5.846;2023-12-29T13:33:31;8.90;99.90
84916;DHT22;75178;53.054;5.846;2023-12-29T13:36:04;8.90;99.90
84916;DHT22;75178;53.054;5.846;2023-12-29T13:38:36;8.90;99.90
84916;DHT22;75178;53.054;5.846;2023-12-29T13:41:07;8.90;99.90
84916;DHT22;75178;53.054;5.846;2023-12-29T13:43:36;8.90;99.90
84916;DHT22;75178;53.054;5.846;2023-12-29T13:46:03;8.80;99.90
84916;DHT22;75178;53.054;5.846;2023-12-29T13:48:31;8.80;99.90
84916;DHT22;75178;53.054;5.846;2023-12-29T13:50:57;8.80;99.90
84916;DHT22;75178;53.054;5.846;2023-12-29T13:53:23;8.80;99.90
84916;DHT22;75178;53.054;5.846;2023-12-29T13:55:50;8.80;99.90
84916;DHT22;75178;53.054;5.846;2023-12-29T13:58:16;8.80;99.90
84916;DHT22;75178;53.054;5.846;2023-12-29T14:00:43;8.80;99.90
84916;DHT22;75178;53.054;5.846;2023-12-29T14:03:14;8.80;99.90
84916;DHT22;75178;53.054;5.846;2023-12-29T14:05:47;8.70;99.90
84916;DHT22;75178;53.054;5.846;2023-12-29T14:08:17;8.80;99.90
84916;DHT22;75178;53.054;5.846;2023-12-29T14:10:43;8.70;99.90
84916;DHT22;75178;53.054;5.846;2023-12-29T14:13:12;8.70;99.90
84916;DHT22;75178;53.054;5.846;2023-12-29T14:15:40;8.70;99.90
84916;DHT22;75178;53.054;5.846;2023-12-29T14:18:14;8.70;99.90
84916;DHT22;75178;53.054;5.846;2023-12-29T14:20:44;8.70;99.90
84916;DHT22;75178;53.054;5.846;2023-12-29T14:23:09;8.70;99.90
84916;DHT22;75178;53.054;5.846;2023-12-29T14:25:35;8.70;99.90
84916;DHT22;75178;53.054;5.846;2023-12-29T14:28:01;8.70;99.90
84916;DHT22;75178;53.054;5.846;2023-12-29T14:30:28;8.70;99.90
84916;DHT22;75178;53.054;5.846;2023-12-29T14:32:54;8.70;99.90
84916;DHT22;75178;53.054;5.846;2023-12-29T14:35:20;8.70;99.90
84916;DHT22;75178;53.054;5.846;2023-12-29T14:37:45;8.70;99.90
84916;DHT22;75178;53.054;5.846;2023-12-29T14:40:11;8.70;99.90
84916;DHT22;75178;53.054;5.846;2023-12-29T14:42:37;8.70;99.90
84916;DHT22;75178;53.054;5.846;2023-12-29T14:45:05;8.70;99.90
84916;DHT22;75178;53.054;5.846;2023-12-29T14:47:32;8.70;99.90
84916;DHT22;75178;53.054;5.846;2023-12-29T14:49:58;8.70;99.90
84916;DHT22;75178;53.054;5.846;2023-12-29T14:52:23;8.70;99.90
84916;DHT22;75178;53.054;5.846;2023-12-29T14:54:49;8.70;99.90
84916;DHT22;75178;53.054;5.846;2023-12-29T14:57:14;8.70;99.90
84916;DHT22;75178;53.054;5.846;2023-12-29T14:59:40;8.70;99.90
84916;DHT22;75178;53.054;5.846;2023-12-29T15:02:06;8.70;99.90
84916;DHT22;75178;53.054;5.846;2023-12-29T15:04:33;8.60;99.90
84916;DHT22;75178;53.054;5.846;2023-12-29T15:06:59;8.60;99.90
84916;DHT22;75178;53.054;5.846;2023-12-29T15:09:24;8.60;99.90
84916;DHT22;75178;53.054;5.846;2023-12-29T15:11:50;8.60;99.90
84916;DHT22;75178;53.054;5.846;2023-12-29T15:14:16;8.60;99.90
84916;DHT22;75178;53.054;5.846;2023-12-29T15:16:41;8.60;99.90
84916;DHT22;75178;53.054;5.846;2023-12-29T15:19:07;8.60;99.90
84916;DHT22;75178;53.054;5.846;2023-12-29T15:21:34;8.60;99.90
84916;DHT22;75178;53.054;5.846;2023-12-29T15:24:00;8.60;99.90
84916;DHT22;75178;53.054;5.846;2023-12-29T15:26:25;8.60;99.90
84916;DHT22;75178;53.054;5.846;2023-12-29T15:28:51;8.60;99.90
84916;DHT22;75178;53.054;5.846;2023-12-29T15:31:16;8.60;99.90
84916;DHT22;75178;53.054;5.846;2023-12-29T15:33:42;8.60;99.90
84916;DHT22;75178;53.054;5.846;2023-12-29T15:36:12;8.60;99.90
84916;DHT22;75178;53.054;5.846;2023-12-29T15:38:39;8.60;99.90
84916;DHT22;75178;53.054;5.846;2023-12-29T15:41:04;8.60;99.90